Acton, Montana
Current Conditions -  °F | °C
As of 12:53 AM on Sunday 23 Nov 2014 (Local Time) from KBIL Reporting Station
Clear Clear  
Wind Chill: 25°   Ceiling: Unl
Heat Index: 34°   Visibility: 10mi
Dew Point: 16°   Wind: 12mph
Humidity: 48%   Direction: 280°W
Pressure: 29.68"   Gusts: NA
Location:  45.93°N, 108.69°W
Report Text: KBIL 230753Z 28010KT 10SM CLR 01/M09 A2968 RMK AO2 SLP061 T00111089 $
Loading
Personal Weather Stations






























Interactive Weather Map New forecast layout! Learn more

10-Day Weather Forecast

Advertisements
Track Severe Weather on mobile